createdAt,value
2018-11-06T00:01:58.683Z,6.70
2018-11-06T00:04:33.918Z,6.70
2018-11-06T00:07:03.879Z,6.70
2018-11-06T00:09:39.415Z,6.80
2018-11-06T00:12:09.061Z,6.80
2018-11-06T00:14:39.001Z,6.80
2018-11-06T00:17:10.528Z,6.80
2018-11-06T00:19:40.370Z,6.80
2018-11-06T00:22:10.175Z,6.80
2018-11-06T00:24:40.920Z,6.80
2018-11-06T00:27:11.032Z,6.80
2018-11-06T00:29:40.825Z,6.90
2018-11-06T00:32:11.097Z,6.90
2018-11-06T00:34:40.807Z,6.90
2018-11-06T00:37:11.421Z,6.90
2018-11-06T00:39:41.458Z,6.90
2018-11-06T00:42:11.686Z,6.90
2018-11-06T00:44:41.423Z,6.90
2018-11-06T00:47:13.619Z,6.90
2018-11-06T00:49:43.228Z,7.00
2018-11-06T00:52:12.766Z,7.00
2018-11-06T00:54:43.782Z,7.00
2018-11-06T00:57:13.637Z,7.00
2018-11-06T00:59:43.871Z,7.10
2018-11-06T01:02:16.503Z,7.10
2018-11-06T01:04:46.519Z,7.10
2018-11-06T01:07:16.276Z,7.10
2018-11-06T01:09:46.393Z,7.10
2018-11-06T01:12:17.506Z,7.10
2018-11-06T01:14:47.623Z,7.10
2018-11-06T01:17:17.480Z,7.10
2018-11-06T01:19:47.469Z,7.10
2018-11-06T01:22:17.468Z,7.10
2018-11-06T01:24:47.032Z,7.10
2018-11-06T01:27:17.346Z,7.10
2018-11-06T01:29:47.191Z,7.20
2018-11-06T01:32:17.366Z,7.20
2018-11-06T01:34:47.370Z,7.20
2018-11-06T01:37:17.014Z,7.20
2018-11-06T01:39:46.643Z,7.20
2018-11-06T01:42:30.753Z,7.20
2018-11-06T01:45:00.854Z,7.20
2018-11-06T01:47:30.532Z,7.20
2018-11-06T01:50:00.979Z,7.20
2018-11-06T01:52:30.565Z,7.20
2018-11-06T01:55:01.043Z,7.20
2018-11-06T01:57:31.330Z,7.20
2018-11-06T02:00:01.677Z,7.10
2018-11-06T02:02:31.758Z,7.10
2018-11-06T02:05:10.792Z,7.10
2018-11-06T02:07:42.051Z,7.00
2018-11-06T02:10:13.218Z,7.00
2018-11-06T02:12:44.426Z,6.90
2018-11-06T02:15:14.697Z,6.90
2018-11-06T02:17:45.324Z,6.80
2018-11-06T02:20:19.515Z,6.80
2018-11-06T02:22:49.094Z,6.80
2018-11-06T02:25:18.803Z,6.80
2018-11-06T02:27:48.657Z,6.80
2018-11-06T02:30:18.724Z,6.80
2018-11-06T02:32:48.741Z,6.80
2018-11-06T02:35:18.677Z,6.80
2018-11-06T02:37:48.142Z,6.80
2018-11-06T02:40:18.873Z,6.80
2018-11-06T02:42:49.034Z,6.80
2018-11-06T02:45:18.807Z,6.80
2018-11-06T02:47:50.143Z,6.80
2018-11-06T02:50:24.841Z,6.80
2018-11-06T02:52:55.044Z,6.80
2018-11-06T02:55:27.441Z,6.80
2018-11-06T02:57:56.892Z,6.80
2018-11-06T03:00:26.943Z,6.80
2018-11-06T03:02:56.467Z,6.80
2018-11-06T03:05:31.888Z,6.80
2018-11-06T03:08:02.112Z,6.80
2018-11-06T03:10:32.210Z,6.80
2018-11-06T03:13:01.671Z,6.70
2018-11-06T03:15:34.734Z,6.70
2018-11-06T03:18:04.231Z,6.70
2018-11-06T03:20:33.718Z,6.70
2018-11-06T03:23:03.125Z,6.70
2018-11-06T03:25:38.103Z,6.70
2018-11-06T03:28:07.812Z,6.70
2018-11-06T03:30:38.608Z,6.70
2018-11-06T03:33:08.609Z,6.70
2018-11-06T03:35:39.926Z,6.70
2018-11-06T03:38:09.871Z,6.80
2018-11-06T03:43:43.487Z,6.80
2018-11-06T03:46:13.756Z,6.70
2018-11-06T03:48:45.183Z,6.70
2018-11-06T03:51:15.991Z,6.70
2018-11-06T03:53:45.462Z,6.60
2018-11-06T03:56:19.840Z,6.60
2018-11-06T03:58:49.759Z,6.50
2018-11-06T04:01:19.486Z,6.50
2018-11-06T04:03:49.525Z,6.50
2018-11-06T04:06:28.538Z,6.50
2018-11-06T04:08:58.705Z,6.50
2018-11-06T04:11:28.363Z,6.40
2018-11-06T04:13:58.309Z,6.40
2018-11-06T04:16:28.707Z,6.40
2018-11-06T04:18:58.443Z,6.40
2018-11-06T04:21:33.176Z,6.40
2018-11-06T04:24:03.252Z,6.30
2018-11-06T04:26:34.596Z,6.30
2018-11-06T04:29:05.135Z,6.30
2018-11-06T04:31:35.226Z,6.30
2018-11-06T04:34:05.025Z,6.20
2018-11-06T04:36:35.382Z,6.20
2018-11-06T04:39:07.247Z,6.20
2018-11-06T04:41:39.403Z,6.20
2018-11-06T04:44:10.024Z,6.20
2018-11-06T04:46:40.682Z,6.20
2018-11-06T04:49:12.313Z,6.10
2018-11-06T04:51:44.382Z,6.10
2018-11-06T04:54:14.387Z,6.10
2018-11-06T04:56:44.480Z,6.10
2018-11-06T04:59:14.262Z,6.10
2018-11-06T05:01:44.405Z,6.10
2018-11-06T05:04:16.216Z,6.00
2018-11-06T05:06:46.426Z,6.00
2018-11-06T05:09:16.380Z,6.00
2018-11-06T05:11:46.366Z,6.00
2018-11-06T05:14:16.915Z,6.00
2018-11-06T05:16:46.815Z,6.00
2018-11-06T05:19:16.658Z,6.00
2018-11-06T05:21:46.954Z,6.00
2018-11-06T05:24:17.293Z,6.00
2018-11-06T05:26:47.360Z,6.00
2018-11-06T05:29:17.666Z,6.10
2018-11-06T05:31:47.737Z,6.10
2018-11-06T05:34:17.792Z,6.10
2018-11-06T05:36:49.502Z,6.10
2018-11-06T05:39:22.739Z,6.10
2018-11-06T05:41:59.178Z,6.00
2018-11-06T05:44:28.649Z,6.00
2018-11-06T05:46:57.777Z,6.00
2018-11-06T05:49:27.235Z,6.00
2018-11-06T05:51:56.294Z,6.10
2018-11-06T05:54:25.269Z,6.10
2018-11-06T05:56:58.838Z,6.10
2018-11-06T05:59:29.117Z,6.10
2018-11-06T06:01:58.429Z,6.10
2018-11-06T06:04:27.655Z,6.10
2018-11-06T06:06:57.236Z,6.10
2018-11-06T06:12:04.313Z,6.10
2018-11-06T06:14:33.830Z,6.10
2018-11-06T06:17:03.025Z,6.10
2018-11-06T06:19:32.338Z,6.10
2018-11-06T06:22:01.316Z,6.20
2018-11-06T06:24:37.228Z,6.20
2018-11-06T06:27:10.485Z,6.20
2018-11-06T06:29:39.815Z,6.20
2018-11-06T06:32:09.286Z,6.30
2018-11-06T06:34:39.364Z,6.30
2018-11-06T06:37:08.411Z,6.30
2018-11-06T06:39:37.515Z,6.30
2018-11-06T06:42:07.090Z,6.40
2018-11-06T06:44:36.079Z,6.40
2018-11-06T06:47:05.184Z,6.40
2018-11-06T06:49:34.107Z,6.40
2018-11-06T06:52:03.467Z,6.40
2018-11-06T06:54:32.606Z,6.40
2018-11-06T06:57:01.378Z,6.40
2018-11-06T06:59:30.277Z,6.50
2018-11-06T07:01:59.175Z,6.50
2018-11-06T07:04:28.082Z,6.50
2018-11-06T07:06:57.347Z,6.60
2018-11-06T07:09:26.242Z,6.60
2018-11-06T07:11:55.221Z,6.60
2018-11-06T07:14:24.239Z,6.60
2018-11-06T07:16:53.210Z,6.70
2018-11-06T07:19:22.140Z,6.70
2018-11-06T07:21:51.235Z,6.80
2018-11-06T07:24:20.821Z,6.80
2018-11-06T07:26:49.792Z,6.80
2018-11-06T07:29:18.711Z,6.80
2018-11-06T07:31:49.080Z,6.90
2018-11-06T07:34:18.176Z,6.90
2018-11-06T07:36:47.115Z,6.90
2018-11-06T07:39:16.127Z,7.00
2018-11-06T07:41:45.185Z,7.00
2018-11-06T07:44:14.147Z,7.10
2018-11-06T07:46:43.471Z,7.10
2018-11-06T07:49:12.379Z,7.20
2018-11-06T07:51:41.356Z,7.20
2018-11-06T07:54:10.393Z,7.30
2018-11-06T07:56:39.798Z,7.40
2018-11-06T07:59:09.367Z,7.40
2018-11-06T08:01:38.259Z,7.40
2018-11-06T08:04:07.603Z,7.40
2018-11-06T08:06:37.339Z,7.40
2018-11-06T08:09:08.965Z,7.50
2018-11-06T08:11:39.004Z,7.50
2018-11-06T08:14:08.159Z,7.50
2018-11-06T08:16:37.661Z,7.50
2018-11-06T08:19:08.566Z,7.50
2018-11-06T08:21:38.440Z,7.60
2018-11-06T08:24:09.907Z,7.60
2018-11-06T08:26:39.052Z,7.60
2018-11-06T08:29:08.532Z,7.60
2018-11-06T08:31:38.400Z,7.70
2018-11-06T08:34:07.343Z,7.70
2018-11-06T08:36:37.494Z,7.80
2018-11-06T08:39:08.752Z,7.80
2018-11-06T08:41:37.893Z,7.90
2018-11-06T08:44:07.087Z,7.90
2018-11-06T08:46:37.094Z,7.90
2018-11-06T08:49:06.108Z,8.00
2018-11-06T08:51:35.300Z,8.10
2018-11-06T08:54:04.504Z,8.10
2018-11-06T08:56:33.855Z,8.20
2018-11-06T08:59:03.189Z,8.30
2018-11-06T09:01:32.659Z,8.40
2018-11-06T09:04:02.917Z,8.50
2018-11-06T09:06:31.968Z,8.60
2018-11-06T09:09:01.263Z,8.70
2018-11-06T09:11:30.824Z,8.80
2018-11-06T09:14:00.055Z,8.90
2018-11-06T09:16:29.175Z,9.00
2018-11-06T09:18:58.346Z,9.10
2018-11-06T09:21:27.639Z,9.20
2018-11-06T09:23:57.656Z,9.20
2018-11-06T09:26:27.140Z,9.30
2018-11-06T09:28:56.591Z,9.40
2018-11-06T09:31:27.082Z,9.50
2018-11-06T09:33:56.082Z,9.60
2018-11-06T09:36:25.698Z,9.70
2018-11-06T09:38:54.628Z,9.80
2018-11-06T09:41:23.710Z,9.80
2018-11-06T09:43:52.834Z,9.90
2018-11-06T09:46:21.926Z,10.00
2018-11-06T09:48:51.048Z,10.10
2018-11-06T09:51:20.807Z,10.20
2018-11-06T09:53:50.090Z,10.30
2018-11-06T09:56:19.211Z,10.30
2018-11-06T09:58:48.685Z,10.40
2018-11-06T10:01:18.172Z,10.40
2018-11-06T10:03:47.597Z,10.60
2018-11-06T10:06:17.074Z,10.60
2018-11-06T10:08:46.365Z,10.70
2018-11-06T10:11:15.522Z,10.80
2018-11-06T10:13:44.704Z,10.90
2018-11-06T10:16:14.050Z,10.90
2018-11-06T10:18:43.495Z,11.00
2018-11-06T10:21:12.990Z,11.10
2018-11-06T10:23:42.261Z,11.10
2018-11-06T10:26:11.527Z,11.20
2018-11-06T10:28:40.744Z,11.30
2018-11-06T10:31:10.296Z,11.30
2018-11-06T10:33:39.623Z,11.40
2018-11-06T10:36:08.905Z,11.40
2018-11-06T10:38:38.257Z,11.50
2018-11-06T10:41:07.838Z,11.60
2018-11-06T10:43:37.435Z,11.70
2018-11-06T10:46:06.869Z,11.70
2018-11-06T10:48:36.229Z,11.80
2018-11-06T10:51:05.569Z,11.80
2018-11-06T10:53:35.055Z,11.90
2018-11-06T10:56:04.727Z,11.90
2018-11-06T10:58:35.226Z,11.90
2018-11-06T11:01:09.914Z,11.90
2018-11-06T11:03:45.399Z,11.90
2018-11-06T11:06:15.118Z,11.90
2018-11-06T11:08:46.596Z,12.00
2018-11-06T11:13:58.575Z,12.00
2018-11-06T11:16:28.734Z,12.10
2018-11-06T11:19:03.232Z,12.10
2018-11-06T11:21:33.679Z,12.20
2018-11-06T11:24:07.830Z,12.20
2018-11-06T11:31:54.734Z,12.30
2018-11-06T11:34:31.856Z,12.40
2018-11-06T11:37:07.082Z,12.40
2018-11-06T11:39:36.913Z,12.40
2018-11-06T11:42:09.512Z,12.40
2018-11-06T11:44:41.621Z,12.40
2018-11-06T11:47:12.611Z,12.40
2018-11-06T11:49:44.883Z,12.40
2018-11-06T11:52:16.286Z,12.50
2018-11-06T11:54:46.582Z,12.50
2018-11-06T11:57:17.021Z,12.50
2018-11-06T11:59:48.420Z,12.40
2018-11-06T12:02:18.594Z,12.40
2018-11-06T12:04:48.385Z,12.50
2018-11-06T12:07:17.791Z,12.50
2018-11-06T12:09:48.036Z,12.50
2018-11-06T12:12:18.068Z,12.50
2018-11-06T12:14:48.308Z,12.50
2018-11-06T12:17:19.161Z,12.60
2018-11-06T12:19:49.967Z,12.60
2018-11-06T12:22:20.477Z,12.60
2018-11-06T12:24:51.775Z,12.60
2018-11-06T12:27:20.766Z,12.70
2018-11-06T12:29:51.553Z,12.70
2018-11-06T12:32:21.962Z,12.70
2018-11-06T12:34:52.613Z,12.70
2018-11-06T12:37:22.463Z,12.80
2018-11-06T12:39:52.805Z,12.80
2018-11-06T12:42:23.508Z,12.80
2018-11-06T12:44:55.557Z,12.90
2018-11-06T12:47:25.188Z,12.90
2018-11-06T12:49:56.852Z,12.90
2018-11-06T12:52:27.518Z,13.00
2018-11-06T12:54:59.289Z,13.00
2018-11-06T12:57:29.456Z,13.00
2018-11-06T13:00:00.672Z,13.00
2018-11-06T13:02:32.906Z,13.10
2018-11-06T13:05:05.714Z,13.10
2018-11-06T13:07:36.495Z,13.10
2018-11-06T13:10:08.164Z,13.20
2018-11-06T13:12:38.253Z,13.20
2018-11-06T13:15:08.702Z,13.20
2018-11-06T13:17:39.929Z,13.20
2018-11-06T13:20:13.025Z,13.20
2018-11-06T13:22:44.023Z,13.20
2018-11-06T13:25:14.413Z,13.20
2018-11-06T13:27:44.892Z,13.20
2018-11-06T13:30:17.475Z,13.20
2018-11-06T13:32:48.645Z,13.10
2018-11-06T13:35:19.852Z,13.00
2018-11-06T13:37:49.964Z,13.00
2018-11-06T13:40:19.137Z,12.90
2018-11-06T13:42:48.587Z,12.80
2018-11-06T13:45:22.410Z,12.70
2018-11-06T13:47:52.035Z,12.60
2018-11-06T13:50:22.083Z,12.50
2018-11-06T13:52:52.788Z,12.40
2018-11-06T13:55:22.960Z,12.30
2018-11-06T13:57:52.699Z,12.20
2018-11-06T14:00:23.784Z,12.20
2018-11-06T14:02:54.618Z,12.10
2018-11-06T14:05:24.139Z,12.10
2018-11-06T14:07:53.907Z,12.20
2018-11-06T14:10:24.126Z,12.20
2018-11-06T14:12:53.646Z,12.30
2018-11-06T14:15:24.269Z,12.30
2018-11-06T14:17:55.621Z,12.40
2018-11-06T14:20:25.098Z,12.40
2018-11-06T14:22:58.064Z,12.50
2018-11-06T14:25:29.181Z,12.50
2018-11-06T14:28:00.099Z,12.60
2018-11-06T14:30:30.074Z,12.60
2018-11-06T14:33:00.928Z,12.60
2018-11-06T14:35:31.160Z,12.60
2018-11-06T14:38:01.297Z,12.60
2018-11-06T14:40:30.565Z,12.60
2018-11-06T14:43:00.577Z,12.60
2018-11-06T14:45:29.900Z,12.70
2018-11-06T14:48:10.856Z,12.70
2018-11-06T14:50:40.884Z,12.70
2018-11-06T14:53:10.336Z,12.80
2018-11-06T14:55:42.076Z,12.80
2018-11-06T14:58:12.509Z,12.90
2018-11-06T15:00:42.696Z,13.00
2018-11-06T15:03:11.703Z,13.10
2018-11-06T15:05:41.668Z,13.20
2018-11-06T15:08:11.703Z,13.30
2018-11-06T15:10:41.780Z,13.50
2018-11-06T15:13:11.340Z,13.50
2018-11-06T15:15:41.372Z,13.60
2018-11-06T15:18:10.770Z,13.80
2018-11-06T15:20:47.392Z,13.80
2018-11-06T15:23:17.836Z,13.90
2018-11-06T15:25:47.508Z,14.00
2018-11-06T15:28:16.551Z,14.10
2018-11-06T15:30:46.250Z,14.20
2018-11-06T15:33:15.889Z,14.20
2018-11-06T15:35:46.180Z,14.20
2018-11-06T15:38:16.378Z,14.30
2018-11-06T15:40:46.892Z,14.30
2018-11-06T15:43:15.971Z,14.40
2018-11-06T15:45:50.292Z,14.40
2018-11-06T15:48:22.370Z,14.50
2018-11-06T15:50:53.291Z,14.50
2018-11-06T15:53:23.146Z,14.50
2018-11-06T15:55:53.294Z,14.60
2018-11-06T15:58:22.472Z,14.50
2018-11-06T16:00:52.453Z,14.50
2018-11-06T16:03:22.392Z,14.50
2018-11-06T16:05:53.811Z,14.50
2018-11-06T16:08:23.863Z,14.50
2018-11-06T16:10:53.892Z,14.50
2018-11-06T16:13:24.359Z,14.50
2018-11-06T16:15:55.407Z,14.60
2018-11-06T16:18:28.593Z,14.50
2018-11-06T16:20:58.263Z,14.50
2018-11-06T16:23:32.403Z,14.50
2018-11-06T16:26:12.119Z,14.50
2018-11-06T16:28:43.962Z,14.50
2018-11-06T16:31:13.716Z,14.50
2018-11-06T16:33:43.964Z,14.60
2018-11-06T16:36:16.076Z,14.50
2018-11-06T16:38:47.774Z,14.60
2018-11-06T16:41:17.510Z,14.50
2018-11-06T16:43:48.570Z,14.50
2018-11-06T16:46:18.929Z,14.40
2018-11-06T16:48:48.957Z,14.30
2018-11-06T16:51:20.199Z,14.30
2018-11-06T16:53:49.867Z,14.30
2018-11-06T16:56:19.464Z,14.30
2018-11-06T16:58:50.385Z,14.20
2018-11-06T17:01:21.361Z,14.20
2018-11-06T17:03:52.437Z,14.20
2018-11-06T17:06:28.339Z,14.20
2018-11-06T17:08:59.130Z,14.10
2018-11-06T17:11:30.771Z,14.10
2018-11-06T17:14:01.954Z,14.00
2018-11-06T17:16:32.182Z,14.00
2018-11-06T17:19:10.506Z,13.90
2018-11-06T17:21:41.629Z,13.90
2018-11-06T17:24:18.176Z,13.90
2018-11-06T17:26:51.010Z,13.90
2018-11-06T17:29:22.674Z,13.80
2018-11-06T17:31:54.255Z,13.80
2018-11-06T17:34:26.072Z,13.80
2018-11-06T17:37:00.851Z,13.70
2018-11-06T17:39:30.674Z,13.70
2018-11-06T17:42:01.098Z,13.70
2018-11-06T17:44:31.120Z,13.70
2018-11-06T17:47:02.065Z,13.70
2018-11-06T17:49:32.026Z,13.60
2018-11-06T17:52:03.110Z,13.60
2018-11-06T17:54:32.943Z,13.50
2018-11-06T17:57:03.561Z,13.50
2018-11-06T17:59:34.843Z,13.50
2018-11-06T18:02:06.832Z,13.50
2018-11-06T18:04:36.839Z,13.40
2018-11-06T18:07:08.330Z,13.40
2018-11-06T18:09:37.894Z,13.40
2018-11-06T18:12:08.205Z,13.30
2018-11-06T18:14:37.931Z,13.30
2018-11-06T18:17:08.654Z,13.30
2018-11-06T18:19:38.067Z,13.30
2018-11-06T18:22:16.674Z,13.20
2018-11-06T18:24:46.922Z,13.20
2018-11-06T18:27:16.821Z,13.10
2018-11-06T18:29:46.888Z,13.10
2018-11-06T18:32:18.471Z,13.00
2018-11-06T18:34:50.598Z,13.00
2018-11-06T18:37:22.377Z,12.90
2018-11-06T18:39:52.516Z,12.80
2018-11-06T18:42:43.076Z,12.70
2018-11-06T18:45:13.826Z,12.60
2018-11-06T18:47:47.987Z,12.60
2018-11-06T18:50:18.201Z,12.40
2018-11-06T18:52:49.756Z,12.30
2018-11-06T18:55:19.174Z,12.30
2018-11-06T18:57:49.548Z,12.20
2018-11-06T19:00:20.622Z,12.10
2018-11-06T19:02:52.161Z,12.10
2018-11-06T19:05:24.194Z,12.00
2018-11-06T19:07:55.195Z,11.90
2018-11-06T19:10:25.736Z,11.80
2018-11-06T19:12:55.708Z,11.80
2018-11-06T19:15:25.987Z,11.70
2018-11-06T19:17:58.505Z,11.70
2018-11-06T19:20:28.587Z,11.60
2018-11-06T19:22:58.715Z,11.60
2018-11-06T19:25:28.805Z,11.50
2018-11-06T19:28:00.209Z,11.40
2018-11-06T19:33:06.433Z,11.10
2018-11-06T19:35:36.761Z,11.10
2018-11-06T19:38:07.701Z,11.00
2018-11-06T19:40:37.684Z,10.90
2018-11-06T19:43:08.144Z,10.80
2018-11-06T19:45:39.042Z,10.80
2018-11-06T19:48:08.719Z,10.70
2018-11-06T19:50:39.437Z,10.70
2018-11-06T19:53:10.487Z,10.70
2018-11-06T19:55:40.982Z,10.60
2018-11-06T19:58:11.348Z,10.60
2018-11-06T20:00:41.195Z,10.50
2018-11-06T20:03:11.384Z,10.40
2018-11-06T20:05:41.185Z,10.40
2018-11-06T20:08:11.032Z,10.30
2018-11-06T20:10:43.456Z,10.30
2018-11-06T20:13:14.161Z,10.20
2018-11-06T20:15:44.484Z,10.20
2018-11-06T20:18:15.851Z,10.20
2018-11-06T20:20:46.338Z,10.20
2018-11-06T20:23:16.855Z,10.20
2018-11-06T20:25:49.104Z,10.10
2018-11-06T20:28:20.035Z,10.10
2018-11-06T20:30:50.113Z,10.10
2018-11-06T20:33:21.055Z,10.00
2018-11-06T20:35:52.740Z,10.10
2018-11-06T20:38:25.034Z,10.00
2018-11-06T20:40:55.392Z,10.00
2018-11-06T20:43:27.061Z,10.00
2018-11-06T20:45:57.427Z,9.90
2018-11-06T20:48:27.248Z,9.90
2018-11-06T20:50:58.774Z,9.90
2018-11-06T20:53:30.131Z,9.80
2018-11-06T20:56:00.138Z,9.70
2018-11-06T20:58:30.475Z,9.70
2018-11-06T21:01:01.241Z,9.70
2018-11-06T21:03:31.062Z,9.60
2018-11-06T21:06:01.015Z,9.60
2018-11-06T21:08:31.019Z,9.50
2018-11-06T21:11:01.273Z,9.40
2018-11-06T21:13:31.376Z,9.40
2018-11-06T21:16:02.852Z,9.40
2018-11-06T21:18:33.500Z,9.30
2018-11-06T21:21:04.309Z,9.30
2018-11-06T21:23:37.735Z,9.20
2018-11-06T21:26:08.621Z,9.20
2018-11-06T21:28:38.601Z,9.20
2018-11-06T21:31:08.805Z,9.20
2018-11-06T21:33:40.354Z,9.10
2018-11-06T21:36:10.201Z,9.00
2018-11-06T21:38:40.786Z,9.00
2018-11-06T21:41:11.450Z,8.90
2018-11-06T21:43:42.941Z,8.90
2018-11-06T21:46:14.234Z,8.80
2018-11-06T21:48:47.273Z,8.80
2018-11-06T21:51:18.834Z,8.70
2018-11-06T21:53:49.352Z,8.70
2018-11-06T21:56:21.030Z,8.70
2018-11-06T21:58:51.572Z,8.70
2018-11-06T22:01:21.669Z,8.60
2018-11-06T22:03:51.530Z,8.60
2018-11-06T22:06:22.013Z,8.60
2018-11-06T22:08:52.426Z,8.60
2018-11-06T22:11:22.575Z,8.50
2018-11-06T22:13:52.358Z,8.50
2018-11-06T22:16:22.457Z,8.50
2018-11-06T22:18:52.953Z,8.50
2018-11-06T22:21:23.401Z,8.50
2018-11-06T22:23:54.456Z,8.50
2018-11-06T22:26:24.573Z,8.50
2018-11-06T22:28:55.359Z,8.50
2018-11-06T22:31:26.039Z,8.50
2018-11-06T22:33:57.300Z,8.50
2018-11-06T22:36:27.313Z,8.60
2018-11-06T22:38:58.420Z,8.50
2018-11-06T22:41:28.416Z,8.50
2018-11-06T22:43:59.183Z,8.50
2018-11-06T22:46:30.785Z,8.50
2018-11-06T22:49:01.835Z,8.40
2018-11-06T22:51:32.101Z,8.40
2018-11-06T22:54:02.566Z,8.30
2018-11-06T22:56:32.705Z,8.30
2018-11-06T22:59:02.556Z,8.30
2018-11-06T23:01:36.266Z,8.20
2018-11-06T23:04:06.723Z,8.20
2018-11-06T23:06:36.590Z,8.20
2018-11-06T23:09:14.200Z,8.20
2018-11-06T23:11:45.752Z,8.10
2018-11-06T23:14:15.860Z,8.10
2018-11-06T23:16:46.291Z,8.10
2018-11-06T23:19:16.639Z,8.00
2018-11-06T23:21:46.677Z,7.90
2018-11-06T23:24:19.952Z,7.90
2018-11-06T23:26:50.191Z,7.80
2018-11-06T23:29:26.482Z,7.80
2018-11-06T23:31:57.599Z,7.70
2018-11-06T23:34:28.973Z,7.70
2018-11-06T23:37:00.415Z,7.60
2018-11-06T23:39:31.006Z,7.60
2018-11-06T23:42:01.183Z,7.50
2018-11-06T23:44:31.327Z,7.50
2018-11-06T23:47:01.855Z,7.40
2018-11-06T23:49:31.745Z,7.40
2018-11-06T23:52:02.240Z,7.40
2018-11-06T23:54:32.526Z,7.30
2018-11-06T23:57:02.660Z,7.30
2018-11-06T23:59:32.985Z,7.30
